Time;durP1;ratioP1;P1;durP2;ratioP2;P2;SDS_P1;SDS_P2;PMS_P1;PMS_P2;Temp;Humidity;BMP_temperature;BMP_pressure;BME280_temperature;BME280_humidity;BME280_pressure;Samples;Min_cycle;Max_cycle;Signal;HPM_P1;HPM_P2
2021/07/29 00:00:32;;;;;;;;;;;;;;;22.09;100.00;99531.34;1728753;81;20291;-76
2021/07/29 00:03:00;;;;;;;;;;;;;;;22.04;100.00;99526.70;1747793;81;20469;-75
2021/07/29 00:05:26;;;;;;;;;;;;;;;22.06;100.00;99538.02;1738261;81;21241;-76
2021/07/29 00:07:52;;;;;;;;;;;;;;;22.13;100.00;99541.89;1731139;81;20168;-76
2021/07/29 00:10:18;;;;;;;;;;;;;;;22.15;100.00;99568.00;1736607;81;20184;-76
2021/07/29 00:12:44;;;;;;;;;;;;;;;21.99;100.00;99573.14;1739655;81;20130;-75
2021/07/29 00:15:14;;;;;;;;;;;;;;;22.01;100.00;99576.93;1738797;82;20189;-78
2021/07/29 00:20:27;;;;;;;;;;;;;;;21.86;100.00;99575.64;1740078;81;20147;-76
2021/07/29 00:22:58;;;;;;;;;;;;;;;21.80;100.00;99568.56;1741871;81;20599;-76
2021/07/29 00:25:24;;;;;;;;;;;;;;;21.86;100.00;99572.95;1741407;80;20187;-76
2021/07/29 00:27:50;;;;;;;;;;;;;;;21.65;100.00;99557.56;1741373;81;20197;-76
2021/07/29 00:30:17;;;;;;;;;;;;;;;21.73;100.00;99561.17;1741184;82;21118;-75
2021/07/29 00:32:44;;;;;;;;;;;;;;;21.63;100.00;99561.83;1740488;81;20361;-76
2021/07/29 00:35:14;;;;;;;;;;;;;;;21.69;100.00;99554.68;1740381;81;20201;-79
2021/07/29 00:37:42;;;;;;;;;;;;;;;21.68;100.00;99563.80;1739819;80;20214;-78
2021/07/29 00:40:09;;;;;;;;;;;;;;;21.75;100.00;99563.11;1739103;81;21122;-77
2021/07/29 00:42:36;;;;;;;;;;;;;;;21.62;100.00;99556.70;1736887;80;21053;-78
2021/07/29 00:45:02;;;;;;;;;;;;;;;21.67;100.00;99566.19;1735299;81;20491;-78
2021/07/29 00:47:28;;;;;;;;;;;;;;;21.64;100.00;99557.27;1738666;82;20135;-77
2021/07/29 00:49:53;;;;;;;;;;;;;;;21.59;100.00;99554.50;1740203;81;20792;-80
2021/07/29 00:52:24;;;;;;;;;;;;;;;21.57;100.00;99557.44;1741289;81;20161;-78
2021/07/29 00:54:51;;;;;;;;;;;;;;;21.42;100.00;99555.26;1740444;81;22713;-76
2021/07/29 00:57:16;;;;;;;;;;;;;;;21.37;100.00;99559.75;1735785;81;20469;-76
2021/07/29 00:59:42;;;;;;;;;;;;;;;21.21;100.00;99553.27;1725414;81;20158;-77
2021/07/29 01:02:08;;;;;;;;;;;;;;;21.23;100.00;99548.48;1733785;80;20495;-76
2021/07/29 01:04:36;;;;;;;;;;;;;;;21.32;100.00;99553.76;1739115;81;20172;-77
2021/07/29 01:07:03;;;;;;;;;;;;;;;21.30;100.00;99545.11;1739885;81;20111;-76
2021/07/29 01:09:30;;;;;;;;;;;;;;;21.33;100.00;99545.97;1740036;82;20178;-79
2021/07/29 01:11:56;;;;;;;;;;;;;;;21.47;100.00;99547.31;1738871;81;20206;-78
2021/07/29 01:14:21;;;;;;;;;;;;;;;21.56;100.00;99542.90;1742546;81;20546;-81
2021/07/29 01:16:47;;;;;;;;;;;;;;;21.50;100.00;99547.36;1738976;81;20154;-76
2021/07/29 01:19:14;;;;;;;;;;;;;;;21.51;100.00;99542.28;1720536;81;21952;-76
2021/07/29 01:21:39;;;;;;;;;;;;;;;21.49;100.00;99540.38;1739336;82;20298;-76
2021/07/29 01:24:05;;;;;;;;;;;;;;;21.51;100.00;99544.97;1737385;82;20136;-75
2021/07/29 01:26:31;;;;;;;;;;;;;;;21.50;100.00;99549.54;1739004;81;20118;-79
2021/07/29 01:28:56;;;;;;;;;;;;;;;21.39;100.00;99550.38;1739685;82;21190;-78
2021/07/29 01:31:22;;;;;;;;;;;;;;;21.42;100.00;99544.52;1739627;81;21106;-77
2021/07/29 01:33:48;;;;;;;;;;;;;;;21.44;100.00;99542.93;1718859;81;20124;-77
2021/07/29 01:36:13;;;;;;;;;;;;;;;21.29;100.00;99538.13;1740187;81;20167;-76
2021/07/29 01:38:40;;;;;;;;;;;;;;;21.29;100.00;99540.27;1740507;81;20174;-77
2021/07/29 01:41:06;;;;;;;;;;;;;;;21.36;100.00;99544.68;1738765;80;20637;-75
2021/07/29 01:43:32;;;;;;;;;;;;;;;21.47;100.00;99538.41;1740526;81;21079;-78
2021/07/29 01:46:01;;;;;;;;;;;;;;;21.43;100.00;99530.03;1739307;81;20176;-75
2021/07/29 01:48:27;;;;;;;;;;;;;;;21.32;100.00;99537.64;1739969;81;20112;-78
2021/07/29 01:50:53;;;;;;;;;;;;;;;21.27;100.00;99538.88;1740771;81;20315;-76
2021/07/29 01:53:19;;;;;;;;;;;;;;;21.34;100.00;99544.92;1740258;80;20179;-75
2021/07/29 01:55:45;;;;;;;;;;;;;;;21.40;100.00;99544.48;1747072;79;21873;-76
2021/07/29 01:58:10;;;;;;;;;;;;;;;21.37;100.00;99548.47;1744074;80;20168;-75
2021/07/29 02:00:37;;;;;;;;;;;;;;;21.34;100.00;99551.09;1738399;80;20298;-77
2021/07/29 02:03:03;;;;;;;;;;;;;;;21.35;100.00;99542.53;1739241;81;20130;-76
2021/07/29 02:05:31;;;;;;;;;;;;;;;21.39;100.00;99545.00;1738842;82;20196;-79
2021/07/29 02:07:58;;;;;;;;;;;;;;;21.37;100.00;99541.75;1734605;81;22368;-78
2021/07/29 02:10:24;;;;;;;;;;;;;;;21.25;100.00;99547.71;1733398;81;20492;-75
2021/07/29 02:12:50;;;;;;;;;;;;;;;21.22;100.00;99546.84;1739937;82;20116;-77
2021/07/29 02:15:16;;;;;;;;;;;;;;;21.30;100.00;99541.08;1738359;81;20182;-76
2021/07/29 02:17:41;;;;;;;;;;;;;;;21.32;100.00;99538.98;1739843;81;20176;-75
2021/07/29 02:20:08;;;;;;;;;;;;;;;21.27;100.00;99545.59;1738597;81;21241;-78
2021/07/29 02:22:33;;;;;;;;;;;;;;;21.28;100.00;99546.69;1736691;82;20150;-76
2021/07/29 02:25:00;;;;;;;;;;;;;;;21.33;100.00;99551.34;1736521;82;20119;-80
2021/07/29 02:27:26;;;;;;;;;;;;;;;21.31;100.00;99554.27;1738514;81;20164;-77
2021/07/29 02:29:52;;;;;;;;;;;;;;;21.11;100.00;99570.02;1740124;81;20156;-76
2021/07/29 02:32:17;;;;;;;;;;;;;;;21.01;100.00;99573.33;1740212;81;21112;-76
2021/07/29 02:34:43;;;;;;;;;;;;;;;20.98;100.00;99577.83;1723973;82;20146;-77
2021/07/29 02:37:08;;;;;;;;;;;;;;;21.07;100.00;99580.42;1740538;81;20150;-78
2021/07/29 02:39:36;;;;;;;;;;;;;;;20.97;100.00;99581.56;1738922;81;20321;-76
2021/07/29 02:42:02;;;;;;;;;;;;;;;21.00;100.00;99579.73;1738989;81;20269;-79
2021/07/29 02:44:27;;;;;;;;;;;;;;;21.00;100.00;99582.96;1741832;81;21148;-77
2021/07/29 02:46:53;;;;;;;;;;;;;;;21.01;100.00;99584.06;1741539;80;20181;-76
2021/07/29 02:49:19;;;;;;;;;;;;;;;20.89;100.00;99599.39;1742531;81;20217;-76
2021/07/29 02:51:44;;;;;;;;;;;;;;;20.80;100.00;99589.03;1740728;81;20551;-80
2021/07/29 02:54:11;;;;;;;;;;;;;;;20.79;100.00;99590.08;1741731;80;20142;-76
2021/07/29 02:56:36;;;;;;;;;;;;;;;20.82;100.00;99594.67;1738685;82;21185;-76
2021/07/29 02:59:02;;;;;;;;;;;;;;;20.79;100.00;99594.10;1740652;81;20138;-77
2021/07/29 03:01:28;;;;;;;;;;;;;;;20.72;100.00;99605.48;1740638;82;20158;-76
2021/07/29 03:03:55;;;;;;;;;;;;;;;20.71;100.00;99605.72;1749043;80;20735;-75
2021/07/29 03:06:20;;;;;;;;;;;;;;;20.68;100.00;99607.03;1758521;80;20510;-81
2021/07/29 03:08:46;;;;;;;;;;;;;;;20.75;100.00;99602.33;1754533;81;21257;-75
2021/07/29 03:11:12;;;;;;;;;;;;;;;20.69;100.00;99611.32;1756721;81;20484;-76
2021/07/29 03:13:39;;;;;;;;;;;;;;;20.65;100.00;99604.81;1756305;81;20144;-79
2021/07/29 03:16:05;;;;;;;;;;;;;;;20.64;100.00;99608.51;1756820;81;20133;-76
2021/07/29 03:18:30;;;;;;;;;;;;;;;20.69;100.00;99607.30;1756626;81;20433;-79
2021/07/29 03:20:56;;;;;;;;;;;;;;;20.65;100.00;99607.50;1756509;81;21159;-77
2021/07/29 03:23:22;;;;;;;;;;;;;;;20.68;100.00;99608.38;1756936;80;20169;-76
2021/07/29 03:25:51;;;;;;;;;;;;;;;20.61;100.00;99611.13;1756482;80;20225;-77
2021/07/29 03:28:17;;;;;;;;;;;;;;;20.57;100.00;99613.17;1755182;80;20131;-79
2021/07/29 03:30:44;;;;;;;;;;;;;;;20.54;100.00;99619.01;1757521;81;20173;-76
2021/07/29 03:33:10;;;;;;;;;;;;;;;20.57;100.00;99619.87;1756996;81;21211;-76
2021/07/29 03:35:37;;;;;;;;;;;;;;;20.53;100.00;99620.88;1757672;80;21184;-76
2021/07/29 03:38:03;;;;;;;;;;;;;;;20.43;100.00;99617.97;1733179;81;20159;-78
2021/07/29 03:40:30;;;;;;;;;;;;;;;20.35;100.00;99622.34;1757621;81;20688;-77
2021/07/29 03:42:59;;;;;;;;;;;;;;;20.27;100.00;99638.26;1754423;81;20152;-78
2021/07/29 03:45:25;;;;;;;;;;;;;;;20.30;100.00;99624.39;1757139;81;20881;-76
2021/07/29 03:47:53;;;;;;;;;;;;;;;20.30;100.00;99629.75;1757230;81;20192;-76
2021/07/29 03:50:18;;;;;;;;;;;;;;;20.30;99.62;99633.77;1756953;81;20329;-80
2021/07/29 03:52:44;;;;;;;;;;;;;;;20.30;99.76;99640.48;1757451;81;20156;-76
2021/07/29 03:55:10;;;;;;;;;;;;;;;20.22;99.48;99644.32;1730330;81;20140;-76
2021/07/29 03:57:36;;;;;;;;;;;;;;;20.15;99.46;99636.94;1758690;80;21023;-76
2021/07/29 04:00:03;;;;;;;;;;;;;;;20.07;100.00;99636.75;1733852;80;20151;-76
2021/07/29 04:02:28;;;;;;;;;;;;;;;20.04;100.00;99637.21;1748807;80;20223;-75
2021/07/29 04:04:54;;;;;;;;;;;;;;;19.99;99.87;99635.72;1741607;81;20134;-77
2021/07/29 04:07:19;;;;;;;;;;;;;;;19.92;99.77;99639.05;1739405;81;20130;-77
2021/07/29 04:09:47;;;;;;;;;;;;;;;19.85;99.73;99639.67;1741389;81;21937;-77
2021/07/29 04:12:12;;;;;;;;;;;;;;;19.83;99.17;99639.09;1725359;81;20142;-75
2021/07/29 04:14:40;;;;;;;;;;;;;;;19.84;99.05;99647.41;1740538;81;20161;-76
2021/07/29 04:17:05;;;;;;;;;;;;;;;19.81;98.68;99640.66;1740239;81;20130;-76
2021/07/29 04:19:32;;;;;;;;;;;;;;;19.78;97.92;99642.96;1740471;81;20124;-75
2021/07/29 04:21:58;;;;;;;;;;;;;;;19.74;97.04;99655.44;1739458;81;20964;-75
2021/07/29 04:24:26;;;;;;;;;;;;;;;19.72;97.16;99650.84;1740702;81;20464;-75
2021/07/29 04:26:53;;;;;;;;;;;;;;;19.71;96.57;99649.20;1740879;81;20197;-77
2021/07/29 04:29:18;;;;;;;;;;;;;;;19.68;96.76;99644.30;1740980;81;20501;-77
2021/07/29 04:31:44;;;;;;;;;;;;;;;19.70;96.69;99644.91;1738658;82;20146;-76
2021/07/29 04:34:09;;;;;;;;;;;;;;;19.72;96.22;99640.13;1739920;82;21079;-75
2021/07/29 04:36:39;;;;;;;;;;;;;;;19.75;96.22;99644.22;1740323;82;20140;-75
2021/07/29 04:39:05;;;;;;;;;;;;;;;19.78;96.12;99657.70;1724966;81;20478;-75
2021/07/29 04:41:31;;;;;;;;;;;;;;;19.63;96.58;99660.25;1738250;81;20720;-76
2021/07/29 04:43:57;;;;;;;;;;;;;;;19.65;96.05;99647.97;1741673;81;20318;-74
2021/07/29 04:46:22;;;;;;;;;;;;;;;19.70;95.50;99666.34;1739807;82;21061;-77
2021/07/29 04:48:48;;;;;;;;;;;;;;;19.70;95.28;99673.54;1739595;82;20162;-75
2021/07/29 04:51:14;;;;;;;;;;;;;;;19.83;95.34;99649.81;1741815;80;20128;-77
2021/07/29 04:53:40;;;;;;;;;;;;;;;19.83;95.21;99656.51;1738776;81;20274;-78
2021/07/29 04:56:07;;;;;;;;;;;;;;;19.85;94.45;99657.09;1738910;81;20244;-77
2021/07/29 04:58:33;;;;;;;;;;;;;;;19.93;94.36;99652.73;1740852;82;21014;-74
2021/07/29 05:01:05;;;;;;;;;;;;;;;19.93;93.63;99659.42;1740181;81;20220;-74
2021/07/29 05:03:30;;;;;;;;;;;;;;;19.76;94.49;99658.42;1739464;81;20171;-75
2021/07/29 05:05:56;;;;;;;;;;;;;;;19.90;93.79;99659.88;1740959;80;20539;-75
2021/07/29 05:08:21;;;;;;;;;;;;;;;19.95;93.57;99665.39;1745890;80;20206;-75
2021/07/29 05:10:48;;;;;;;;;;;;;;;19.73;92.68;99681.96;1741423;80;21275;-75
2021/07/29 05:13:14;;;;;;;;;;;;;;;19.82;92.78;99658.88;1735213;81;20145;-75
2021/07/29 05:15:39;;;;;;;;;;;;;;;19.96;92.69;99663.52;1739855;81;20160;-76
2021/07/29 05:18:05;;;;;;;;;;;;;;;19.99;92.56;99658.51;1740804;81;20161;-74
2021/07/29 05:20:30;;;;;;;;;;;;;;;19.96;91.98;99661.65;1741035;81;20457;-75
2021/07/29 05:22:56;;;;;;;;;;;;;;;20.06;90.90;99669.14;1725938;81;22650;-79
2021/07/29 05:25:24;;;;;;;;;;;;;;;20.05;91.63;99670.98;1742619;80;20148;-76
2021/07/29 05:27:50;;;;;;;;;;;;;;;20.04;91.27;99672.05;1739468;81;20269;-75
2021/07/29 05:30:16;;;;;;;;;;;;;;;20.06;91.11;99672.63;1740138;81;20172;-76
2021/07/29 05:32:45;;;;;;;;;;;;;;;20.16;90.31;99659.19;1740356;81;21233;-75
2021/07/29 05:35:11;;;;;;;;;;;;;;;20.22;89.72;99660.94;1740262;80;20722;-76
2021/07/29 05:37:37;;;;;;;;;;;;;;;20.23;89.83;99675.99;1741210;81;20377;-75
2021/07/29 05:40:07;;;;;;;;;;;;;;;20.28;89.60;99669.40;1741710;80;20178;-75
2021/07/29 05:42:33;;;;;;;;;;;;;;;20.53;88.28;99664.34;1738796;81;20092;-75
2021/07/29 05:44:59;;;;;;;;;;;;;;;20.50;88.02;99676.88;1737958;81;21153;-73
2021/07/29 05:47:24;;;;;;;;;;;;;;;20.42;88.22;99670.80;1737074;82;21935;-77
2021/07/29 05:49:50;;;;;;;;;;;;;;;20.49;86.78;99675.23;1737928;82;20167;-77
2021/07/29 05:52:15;;;;;;;;;;;;;;;20.58;86.77;99684.56;1741572;82;20184;-75
2021/07/29 05:54:41;;;;;;;;;;;;;;;20.57;86.12;99688.28;1741442;81;20148;-75
2021/07/29 05:57:06;;;;;;;;;;;;;;;20.49;85.92;99677.91;1740652;81;20152;-78
2021/07/29 05:59:32;;;;;;;;;;;;;;;20.65;86.30;99690.67;1738242;82;22045;-75
2021/07/29 06:02:00;;;;;;;;;;;;;;;20.69;85.39;99682.42;1743385;80;20136;-75
2021/07/29 06:04:27;;;;;;;;;;;;;;;20.92;85.33;99690.17;1745822;80;20187;-78
2021/07/29 06:06:53;;;;;;;;;;;;;;;20.87;84.97;99690.08;1738258;82;20190;-75
2021/07/29 06:09:20;;;;;;;;;;;;;;;20.83;85.10;99694.27;1721546;82;20148;-75
2021/07/29 06:11:46;;;;;;;;;;;;;;;21.02;85.25;99685.03;1741225;81;21068;-75
2021/07/29 06:14:13;;;;;;;;;;;;;;;21.03;84.20;99697.38;1741684;81;20131;-76
2021/07/29 06:16:39;;;;;;;;;;;;;;;21.08;84.24;99690.77;1740942;81;20127;-75
2021/07/29 06:19:06;;;;;;;;;;;;;;;21.13;83.91;99690.89;1742715;80;20126;-75
2021/07/29 06:21:35;;;;;;;;;;;;;;;21.09;83.80;99696.44;1741438;81;20163;-75
2021/07/29 06:24:01;;;;;;;;;;;;;;;21.10;83.51;99699.42;1743322;80;20676;-76
2021/07/29 06:26:30;;;;;;;;;;;;;;;21.07;83.36;99707.14;1742406;80;20565;-76
2021/07/29 06:28:56;;;;;;;;;;;;;;;21.22;82.41;99697.23;1740924;82;20194;-74
2021/07/29 06:31:21;;;;;;;;;;;;;;;21.33;82.17;99693.69;1738702;81;20494;-76
2021/07/29 06:33:47;;;;;;;;;;;;;;;21.20;81.63;99714.11;1735807;81;20165;-75
2021/07/29 06:36:12;;;;;;;;;;;;;;;21.29;82.26;99703.30;1738156;81;21069;-78
2021/07/29 06:38:38;;;;;;;;;;;;;;;21.28;81.94;99709.17;1738928;81;20606;-74
2021/07/29 06:41:05;;;;;;;;;;;;;;;21.32;81.47;99714.91;1733752;81;20878;-74
2021/07/29 06:43:30;;;;;;;;;;;;;;;21.39;81.65;99706.16;1738301;82;20468;-75
2021/07/29 06:45:59;;;;;;;;;;;;;;;21.57;81.25;99709.23;1740000;81;20105;-75
2021/07/29 06:48:25;;;;;;;;;;;;;;;21.64;80.28;99715.80;1739442;81;20655;-73
2021/07/29 06:50:52;;;;;;;;;;;;;;;21.55;80.46;99715.89;1738917;81;20170;-75
2021/07/29 06:53:18;;;;;;;;;;;;;;;21.58;79.88;99720.28;1740223;81;20190;-78
2021/07/29 06:55:48;;;;;;;;;;;;;;;21.76;79.59;99724.64;1726174;82;20429;-77
2021/07/29 06:58:14;;;;;;;;;;;;;;;21.75;78.17;99725.71;1737993;81;20227;-76
2021/07/29 07:00:39;;;;;;;;;;;;;;;21.68;77.98;99733.89;1739866;81;21145;-74
2021/07/29 07:03:05;;;;;;;;;;;;;;;21.67;78.09;99726.08;1740104;80;20245;-74
2021/07/29 07:05:31;;;;;;;;;;;;;;;21.91;78.45;99723.27;1745840;80;20132;-78
2021/07/29 07:07:59;;;;;;;;;;;;;;;22.02;77.96;99722.42;1757079;81;20190;-75
2021/07/29 07:10:25;;;;;;;;;;;;;;;22.02;76.77;99734.52;1757051;80;20157;-76
2021/07/29 07:12:52;;;;;;;;;;;;;;;21.94;76.65;99717.41;1759717;80;21973;-76
2021/07/29 07:15:18;;;;;;;;;;;;;;;21.97;76.95;99717.77;1756730;81;20292;-75
2021/07/29 07:17:43;;;;;;;;;;;;;;;22.14;76.74;99715.61;1757200;80;20139;-76
2021/07/29 07:20:10;;;;;;;;;;;;;;;22.08;76.07;99716.08;1756111;80;20697;-76
2021/07/29 07:22:38;;;;;;;;;;;;;;;22.22;75.87;99707.16;1752631;80;20603;-75
2021/07/29 07:25:04;;;;;;;;;;;;;;;22.19;76.21;99727.82;1757044;81;20990;-75
2021/07/29 07:27:31;;;;;;;;;;;;;;;22.16;75.22;99722.39;1755581;81;20470;-77
2021/07/29 07:29:58;;;;;;;;;;;;;;;22.17;74.24;99724.03;1755095;81;20180;-77
2021/07/29 07:32:24;;;;;;;;;;;;;;;22.24;74.38;99731.39;1756496;81;20159;-78
2021/07/29 07:34:49;;;;;;;;;;;;;;;22.28;74.03;99733.59;1755301;80;20150;-76
2021/07/29 07:37:20;;;;;;;;;;;;;;;22.43;74.24;99715.04;1756845;81;21978;-76
2021/07/29 07:39:48;;;;;;;;;;;;;;;22.67;73.75;99708.12;1755299;81;20491;-74
2021/07/29 07:42:14;;;;;;;;;;;;;;;22.73;72.65;99720.59;1732824;81;20206;-75
2021/07/29 07:44:39;;;;;;;;;;;;;;;22.46;72.50;99719.93;1757157;80;20136;-78
2021/07/29 07:47:05;;;;;;;;;;;;;;;22.63;71.89;99709.16;1756852;81;20228;-75
2021/07/29 07:49:33;;;;;;;;;;;;;;;22.73;71.87;99710.66;1757329;81;21093;-76
2021/07/29 07:51:59;;;;;;;;;;;;;;;22.77;70.64;99707.73;1757089;81;20142;-75
2021/07/29 07:54:25;;;;;;;;;;;;;;;22.80;70.42;99713.71;1757837;80;20226;-75
2021/07/29 07:56:50;;;;;;;;;;;;;;;22.84;70.17;99707.58;1757487;81;20116;-76
2021/07/29 07:59:16;;;;;;;;;;;;;;;22.88;69.84;99708.70;1757318;81;20429;-76
2021/07/29 08:01:42;;;;;;;;;;;;;;;23.14;69.40;99699.65;1755138;80;21072;-75
2021/07/29 08:04:08;;;;;;;;;;;;;;;23.32;69.37;99700.39;1757166;80;20262;-76
2021/07/29 08:06:36;;;;;;;;;;;;;;;23.47;67.99;99696.52;1751579;79;20184;-76
2021/07/29 08:09:02;;;;;;;;;;;;;;;23.42;66.82;99696.48;1739604;80;20100;-77
2021/07/29 08:11:27;;;;;;;;;;;;;;;23.43;67.72;99698.08;1742976;81;20214;-77
2021/07/29 08:13:53;;;;;;;;;;;;;;;23.40;67.44;99704.81;1719382;82;21157;-77
2021/07/29 08:16:18;;;;;;;;;;;;;;;23.46;67.03;99697.58;1740974;81;20234;-77
2021/07/29 08:18:44;;;;;;;;;;;;;;;23.54;66.37;99699.84;1722520;82;20166;-77
2021/07/29 08:21:12;;;;;;;;;;;;;;;23.47;65.31;99708.11;1742635;81;21192;-78
2021/07/29 08:23:41;;;;;;;;;;;;;;;23.58;65.47;99710.93;1743524;81;20182;-78
2021/07/29 08:26:07;;;;;;;;;;;;;;;23.48;65.00;99703.55;1721409;81;21305;-75
2021/07/29 08:28:34;;;;;;;;;;;;;;;23.55;65.48;99698.77;1740065;81;20152;-77
2021/07/29 08:31:02;;;;;;;;;;;;;;;23.63;64.47;99701.02;1741813;81;20217;-76
2021/07/29 08:33:28;;;;;;;;;;;;;;;23.72;64.23;99699.21;1740248;81;20157;-76
2021/07/29 08:35:55;;;;;;;;;;;;;;;23.90;63.48;99702.93;1740838;81;20436;-77
2021/07/29 08:38:21;;;;;;;;;;;;;;;24.01;63.40;99713.28;1739074;82;21854;-77
2021/07/29 08:40:47;;;;;;;;;;;;;;;23.93;62.93;99704.31;1739802;81;20140;-78
2021/07/29 08:43:13;;;;;;;;;;;;;;;23.81;62.83;99713.86;1740338;82;20590;-79
2021/07/29 08:45:43;;;;;;;;;;;;;;;23.66;63.19;99723.95;1741265;82;20226;-76
2021/07/29 08:48:09;;;;;;;;;;;;;;;23.87;62.88;99714.23;1721285;82;20243;-75
2021/07/29 08:50:35;;;;;;;;;;;;;;;23.94;62.63;99704.57;1742462;82;22342;-76
2021/07/29 08:53:00;;;;;;;;;;;;;;;23.93;61.76;99707.01;1741130;80;20122;-78
2021/07/29 08:55:26;;;;;;;;;;;;;;;23.92;61.86;99703.48;1739274;82;20269;-76
2021/07/29 08:57:54;;;;;;;;;;;;;;;23.86;60.66;99712.59;1740771;82;20156;-77
2021/07/29 09:00:21;;;;;;;;;;;;;;;23.83;60.94;99715.77;1741166;82;20203;-77
2021/07/29 09:02:50;;;;;;;;;;;;;;;23.83;61.39;99713.06;1741418;82;21097;-76
2021/07/29 09:05:21;;;;;;;;;;;;;;;23.79;61.79;99710.08;1739853;82;20508;-77
2021/07/29 09:08:03;;;;;;;;;;;;;;;24.01;62.25;99708.69;1740386;81;20123;-76
2021/07/29 09:10:29;;;;;;;;;;;;;;;23.98;61.72;99717.84;1739459;81;20167;-77
2021/07/29 09:13:17;;;;;;;;;;;;;;;24.03;61.24;99701.69;1739312;80;20142;-76
2021/07/29 09:15:45;;;;;;;;;;;;;;;23.90;60.00;99702.93;1747487;80;21080;-77
2021/07/29 09:18:14;;;;;;;;;;;;;;;24.09;60.00;99700.66;1745663;80;20131;-77
2021/07/29 09:20:41;;;;;;;;;;;;;;;24.23;59.74;99709.14;1740950;81;20128;-77
2021/07/29 09:23:15;;;;;;;;;;;;;;;24.33;59.98;99705.19;1743315;81;20496;-77
2021/07/29 09:25:41;;;;;;;;;;;;;;;24.34;60.48;99711.39;1739709;81;20228;-78
2021/07/29 09:28:07;;;;;;;;;;;;;;;24.42;57.94;99722.24;1742324;81;21090;-76
2021/07/29 09:30:33;;;;;;;;;;;;;;;24.25;57.81;99720.48;1740133;82;20112;-77
2021/07/29 09:33:12;;;;;;;;;;;;;;;24.22;59.17;99718.84;1741290;81;20133;-76
2021/07/29 09:35:43;;;;;;;;;;;;;;;24.25;59.08;99725.88;1740365;82;20222;-76
2021/07/29 09:38:24;;;;;;;;;;;;;;;24.28;59.49;99714.57;1740047;82;20198;-76
2021/07/29 09:40:59;;;;;;;;;;;;;;;24.49;59.38;99712.05;1739163;80;21187;-77
2021/07/29 09:43:28;;;;;;;;;;;;;;;24.43;58.45;99717.13;1740131;81;20249;-80
2021/07/29 09:45:56;;;;;;;;;;;;;;;24.49;58.04;99718.80;1739365;81;20162;-78
2021/07/29 09:48:22;;;;;;;;;;;;;;;24.55;58.49;99713.16;1740868;81;20171;-78
2021/07/29 09:50:50;;;;;;;;;;;;;;;24.73;58.87;99707.09;1740515;80;20144;-78
2021/07/29 09:53:15;;;;;;;;;;;;;;;24.90;58.59;99709.62;1740851;82;21996;-82
2021/07/29 09:55:41;;;;;;;;;;;;;;;25.01;59.04;99711.29;1741258;81;20217;-77
2021/07/29 09:58:07;;;;;;;;;;;;;;;25.06;56.91;99717.25;1742974;80;20142;-79
2021/07/29 10:00:35;;;;;;;;;;;;;;;24.78;56.28;99713.06;1723384;82;39816;-76
2021/07/29 10:03:05;;;;;;;;;;;;;;;24.71;56.63;99720.05;1734254;81;20179;-80
2021/07/29 10:05:46;;;;;;;;;;;;;;;24.81;56.81;99711.19;1739304;80;21299;-78
2021/07/29 10:08:15;;;;;;;;;;;;;;;24.82;57.11;99712.83;1737105;82;20183;-76
2021/07/29 10:10:44;;;;;;;;;;;;;;;24.86;56.72;99695.00;1745561;80;20207;-76
2021/07/29 10:13:10;;;;;;;;;;;;;;;24.92;55.84;99698.00;1743740;80;20180;-76
2021/07/29 10:15:43;;;;;;;;;;;;;;;25.16;56.80;99700.30;1740837;82;20160;-79
2021/07/29 10:18:10;;;;;;;;;;;;;;;25.05;56.12;99698.89;1740461;81;21062;-80
2021/07/29 10:20:36;;;;;;;;;;;;;;;25.26;55.84;99704.37;1739002;81;20156;-79
2021/07/29 10:23:18;;;;;;;;;;;;;;;25.31;55.29;99701.74;1737461;80;20331;-78
2021/07/29 10:26:03;;;;;;;;;;;;;;;25.25;55.44;99702.77;1740593;81;20168;-79
2021/07/29 10:28:35;;;;;;;;;;;;;;;25.42;55.37;99708.80;1736795;81;20538;-80
2021/07/29 10:31:00;;;;;;;;;;;;;;;25.31;55.78;99719.30;1733478;81;20148;-78
2021/07/29 10:33:30;;;;;;;;;;;;;;;25.41;55.88;99704.45;1732907;81;20188;-80
2021/07/29 10:35:56;;;;;;;;;;;;;;;25.34;54.72;99697.67;1738539;81;20224;-79
2021/07/29 10:38:42;;;;;;;;;;;;;;;25.47;55.02;99701.79;1734700;80;20156;-79
2021/07/29 10:41:23;;;;;;;;;;;;;;;25.62;54.41;99709.39;1736485;81;20653;-78
2021/07/29 10:43:54;;;;;;;;;;;;;;;25.40;54.14;99701.50;1738353;81;21089;-79
2021/07/29 10:46:21;;;;;;;;;;;;;;;25.47;54.67;99698.53;1739215;82;20099;-79
2021/07/29 10:49:01;;;;;;;;;;;;;;;;;;;;;
2021/07/29 10:51:25;;;;;;;;;;;;;;;25.63;53.99;99689.36;1723918;80;20429;-77
2021/07/29 10:53:57;;;;;;;;;;;;;;;25.90;53.74;99691.57;1728347;81;20184;-77
2021/07/29 10:56:23;;;;;;;;;;;;;;;25.87;53.67;99702.92;1729597;82;21333;-78
2021/07/29 10:58:50;;;;;;;;;;;;;;;25.70;53.69;99690.48;1729736;81;20290;-77
2021/07/29 11:01:16;;;;;;;;;;;;;;;25.93;54.34;99696.44;1731876;81;20357;-78
2021/07/29 11:03:54;;;;;;;;;;;;;;;26.04;53.87;99685.95;1733970;81;20186;-83
2021/07/29 11:06:43;;;;;;;;;;;;;;;25.94;54.30;99688.06;1734489;81;20178;-76
2021/07/29 11:09:18;;;;;;;;;;;;;;;25.90;53.63;99697.81;1729517;81;20511;-76
2021/07/29 11:11:46;;;;;;;;;;;;;;;26.02;53.04;99690.80;1728482;82;20242;-76
2021/07/29 11:14:11;;;;;;;;;;;;;;;25.81;52.97;99700.78;1727341;81;20436;-78
2021/07/29 11:16:37;;;;;;;;;;;;;;;25.90;52.67;99696.98;1732409;81;20459;-80
2021/07/29 11:19:06;;;;;;;;;;;;;;;25.90;53.19;99707.28;1735037;81;20503;-78
2021/07/29 11:21:33;;;;;;;;;;;;;;;26.06;52.79;99687.83;1731329;81;20492;-78
2021/07/29 11:24:00;;;;;;;;;;;;;;;26.17;53.20;99694.61;1732766;81;20114;-76
2021/07/29 11:26:26;;;;;;;;;;;;;;;26.28;52.47;99702.98;1729531;81;20467;-78
2021/07/29 11:29:09;;;;;;;;;;;;;;;26.19;53.02;99703.27;1703452;81;20185;-78
2021/07/29 11:31:35;;;;;;;;;;;;;;;26.25;52.74;99690.00;1730272;81;20151;-77
2021/07/29 11:34:01;;;;;;;;;;;;;;;26.38;52.75;99685.36;1731566;81;21821;-78
2021/07/29 11:36:28;;;;;;;;;;;;;;;26.45;52.20;99684.55;1731995;81;20230;-77
2021/07/29 11:38:55;;;;;;;;;;;;;;;26.58;51.32;99685.08;1729530;81;20162;-77
2021/07/29 11:41:21;;;;;;;;;;;;;;;26.64;50.99;99688.84;1732002;81;20236;-77
2021/07/29 11:43:53;;;;;;;;;;;;;;;26.77;51.32;99686.16;1728731;81;20168;-79
2021/07/29 11:46:18;;;;;;;;;;;;;;;26.71;50.67;99681.84;1734328;81;22664;-77
2021/07/29 11:48:44;;;;;;;;;;;;;;;26.69;50.59;99696.17;1728869;81;20134;-78
2021/07/29 11:51:15;;;;;;;;;;;;;;;26.70;50.00;99684.27;1712847;81;20164;-78
2021/07/29 11:53:44;;;;;;;;;;;;;;;26.76;50.14;99676.39;1673053;84;20247;-77
2021/07/29 11:56:12;;;;;;;;;;;;;;;26.89;50.11;99682.31;1662432;84;20222;-77
2021/07/29 11:58:41;;;;;;;;;;;;;;;26.92;50.51;99687.19;1661838;84;22426;-78
2021/07/29 12:01:15;;;;;;;;;;;;;;;26.97;50.15;99692.58;1662523;85;20200;-77
2021/07/29 12:03:46;;;;;;;;;;;;;;;27.04;49.64;99683.62;1664633;84;20177;-77
2021/07/29 12:06:13;;;;;;;;;;;;;;;27.12;49.40;99680.32;1638070;86;20204;-77
2021/07/29 12:08:40;;;;;;;;;;;;;;;27.19;49.62;99685.44;1661659;85;20229;-77
2021/07/29 12:11:07;;;;;;;;;;;;;;;27.25;49.98;99684.88;1661163;85;21986;-77
2021/07/29 12:13:34;;;;;;;;;;;;;;;27.26;49.31;99679.73;1658648;84;20181;-79
2021/07/29 12:16:03;;;;;;;;;;;;;;;27.23;49.05;99676.47;1637672;85;20141;-77
2021/07/29 12:18:28;;;;;;;;;;;;;;;27.28;49.30;99689.74;1663207;84;20172;-76
2021/07/29 12:20:56;;;;;;;;;;;;;;;27.06;50.26;99670.59;1662078;84;20480;-77
2021/07/29 12:23:22;;;;;;;;;;;;;;;27.27;50.12;99667.77;1660409;84;21875;-78
2021/07/29 12:25:48;;;;;;;;;;;;;;;27.31;50.27;99664.78;1664221;85;20243;-78
2021/07/29 12:28:14;;;;;;;;;;;;;;;27.32;49.58;99658.31;1662997;84;20219;-78
2021/07/29 12:30:45;;;;;;;;;;;;;;;27.39;49.21;99657.44;1666546;84;20187;-77
2021/07/29 12:33:16;;;;;;;;;;;;;;;27.70;48.46;99655.89;1665477;84;20169;-77
2021/07/29 12:35:46;;;;;;;;;;;;;;;27.97;47.64;99649.19;1638239;84;21157;-77
2021/07/29 12:38:11;;;;;;;;;;;;;;;27.87;46.95;99653.58;1664259;84;20861;-75
2021/07/29 12:40:38;;;;;;;;;;;;;;;27.79;46.78;99667.76;1667094;84;20204;-77
2021/07/29 12:43:19;;;;;;;;;;;;;;;27.29;46.52;99654.22;1664061;84;20369;-76
2021/07/29 12:45:59;;;;;;;;;;;;;;;27.37;47.35;99648.78;1687078;83;20218;-77
2021/07/29 12:48:29;;;;;;;;;;;;;;;27.41;47.61;99645.78;1660150;85;21090;-77